Terminal Aerodrome Forecast
Issued by NWS Chicago, IL

Home | Current Version | Previous Version | Graphics & Text | Print | Product List | Glossary On
Versions: 1 2 3 4 5 6 7 8 9 10 11 12 13 14 15 16 17 18 19 20 21 22 23
000
FTUS43 KLOT 022346
TAFRFD
TAF
KRFD 022346Z 0300/0324 05011KT P6SM BKN070
     FM030300 VRB03KT P6SM FEW060
     FM031500 27010KT P6SM SCT080
     FM032000 26011G18KT P6SM BKN070=

USA.gov is the U.S. government's official web portal to all federal, state and local government web resources and services.